sensor_id;sensor_type;location;lat;lon;timestamp;pressure;altitude;pressure_sealevel;temperature;humidity
75699;BME280;64313;51.018;13.742;2023-03-01T00:00:53;101080.16;;;-0.97;71.17
75699;BME280;64313;51.018;13.742;2023-03-01T00:03:18;101086.63;;;-1.02;72.56
75699;BME280;64313;51.018;13.742;2023-03-01T00:05:45;101082.41;;;-1.05;72.34
75699;BME280;64313;51.018;13.742;2023-03-01T00:08:10;101088.47;;;-1.04;71.59
75699;BME280;64313;51.018;13.742;2023-03-01T00:10:36;101089.59;;;-1.09;70.94
75699;BME280;64313;51.018;13.742;2023-03-01T00:13:01;101088.84;;;-1.11;70.61
75699;BME280;64313;51.018;13.742;2023-03-01T00:15:26;101083.44;;;-1.07;70.63
75699;BME280;64313;51.018;13.742;2023-03-01T00:17:52;101085.94;;;-1.06;70.60
75699;BME280;64313;51.018;13.742;2023-03-01T00:20:17;101077.03;;;-1.03;70.18
75699;BME280;64313;51.018;13.742;2023-03-01T00:22:42;101083.44;;;-1.07;70.69
75699;BME280;64313;51.018;13.742;2023-03-01T00:25:08;101082.84;;;-1.13;70.72
75699;BME280;64313;51.018;13.742;2023-03-01T00:27:34;101076.78;;;-1.13;70.79
75699;BME280;64313;51.018;13.742;2023-03-01T00:29:59;101077.22;;;-1.21;70.80
75699;BME280;64313;51.018;13.742;2023-03-01T00:32:25;101073.91;;;-1.24;71.34
75699;BME280;64313;51.018;13.742;2023-03-01T00:34:50;101076.72;;;-1.27;71.84
75699;BME280;64313;51.018;13.742;2023-03-01T00:37:21;101070.91;;;-1.33;72.35
75699;BME280;64313;51.018;13.742;2023-03-01T00:39:48;101074.56;;;-1.35;71.33
75699;BME280;64313;51.018;13.742;2023-03-01T00:42:14;101066.69;;;-1.35;71.35
75699;BME280;64313;51.018;13.742;2023-03-01T00:44:40;101059.72;;;-1.36;70.86
75699;BME280;64313;51.018;13.742;2023-03-01T00:47:05;101058.13;;;-1.39;71.10
75699;BME280;64313;51.018;13.742;2023-03-01T00:49:30;101057.28;;;-1.39;71.24
75699;BME280;64313;51.018;13.742;2023-03-01T00:51:56;101052.88;;;-1.39;71.14
75699;BME280;64313;51.018;13.742;2023-03-01T00:54:22;101053.75;;;-1.38;71.12
75699;BME280;64313;51.018;13.742;2023-03-01T00:56:48;101051.38;;;-1.43;70.91
75699;BME280;64313;51.018;13.742;2023-03-01T00:59:13;101048.09;;;-1.46;71.50
75699;BME280;64313;51.018;13.742;2023-03-01T01:01:39;101055.03;;;-1.45;70.86
75699;BME280;64313;51.018;13.742;2023-03-01T01:04:07;101052.69;;;-1.50;71.11
75699;BME280;64313;51.018;13.742;2023-03-01T01:06:38;101052.75;;;-1.52;71.40
75699;BME280;64313;51.018;13.742;2023-03-01T01:09:05;101051.06;;;-1.53;71.50
75699;BME280;64313;51.018;13.742;2023-03-01T01:11:32;101054.53;;;-1.52;71.96
75699;BME280;64313;51.018;13.742;2023-03-01T01:13:58;101053.69;;;-1.53;71.72
75699;BME280;64313;51.018;13.742;2023-03-01T01:16:24;101054.66;;;-1.54;70.93
75699;BME280;64313;51.018;13.742;2023-03-01T01:18:50;101048.53;;;-1.54;71.10
75699;BME280;64313;51.018;13.742;2023-03-01T01:21:18;101045.00;;;-1.53;70.81
75699;BME280;64313;51.018;13.742;2023-03-01T01:23:45;101040.78;;;-1.56;71.05
75699;BME280;64313;51.018;13.742;2023-03-01T01:26:14;101041.78;;;-1.58;71.69
75699;BME280;64313;51.018;13.742;2023-03-01T01:28:39;101036.75;;;-1.61;71.41
75699;BME280;64313;51.018;13.742;2023-03-01T01:31:05;101036.81;;;-1.63;71.60
75699;BME280;64313;51.018;13.742;2023-03-01T01:33:31;101036.13;;;-1.66;71.69
75699;BME280;64313;51.018;13.742;2023-03-01T01:35:57;101037.16;;;-1.69;72.47
75699;BME280;64313;51.018;13.742;2023-03-01T01:38:22;101026.25;;;-1.77;71.93
75699;BME280;64313;51.018;13.742;2023-03-01T01:40:49;101027.38;;;-1.81;73.39
75699;BME280;64313;51.018;13.742;2023-03-01T01:43:30;101032.78;;;-1.84;73.34
75699;BME280;64313;51.018;13.742;2023-03-01T01:46:01;101026.63;;;-1.83;72.58
75699;BME280;64313;51.018;13.742;2023-03-01T01:48:37;101029.91;;;-1.80;71.54
75699;BME280;64313;51.018;13.742;2023-03-01T01:51:07;101037.88;;;-1.81;72.03
75699;BME280;64313;51.018;13.742;2023-03-01T01:53:35;101030.34;;;-1.87;74.39
75699;BME280;64313;51.018;13.742;2023-03-01T01:56:02;101037.72;;;-1.94;73.27
75699;BME280;64313;51.018;13.742;2023-03-01T01:58:29;101037.09;;;-1.99;73.82
75699;BME280;64313;51.018;13.742;2023-03-01T02:00:55;101031.78;;;-1.98;72.95
75699;BME280;64313;51.018;13.742;2023-03-01T02:03:32;101026.56;;;-1.98;72.86
75699;BME280;64313;51.018;13.742;2023-03-01T02:09:07;101027.63;;;-2.02;72.79
75699;BME280;64313;51.018;13.742;2023-03-01T02:11:34;101018.75;;;-1.99;73.04
75699;BME280;64313;51.018;13.742;2023-03-01T02:14:02;101017.53;;;-2.08;73.21
75699;BME280;64313;51.018;13.742;2023-03-01T02:16:28;101016.69;;;-2.08;72.29
75699;BME280;64313;51.018;13.742;2023-03-01T02:18:54;101015.84;;;-2.09;72.36
75699;BME280;64313;51.018;13.742;2023-03-01T02:21:54;101016.69;;;-2.08;71.64
75699;BME280;64313;51.018;13.742;2023-03-01T02:26:50;101003.84;;;-2.13;71.73
75699;BME280;64313;51.018;13.742;2023-03-01T02:29:16;100991.50;;;-2.11;72.02
75699;BME280;64313;51.018;13.742;2023-03-01T02:31:42;100983.91;;;-2.15;71.93
75699;BME280;64313;51.018;13.742;2023-03-01T02:34:11;100988.47;;;-2.19;73.07
75699;BME280;64313;51.018;13.742;2023-03-01T02:37:01;100985.28;;;-2.24;73.69
75699;BME280;64313;51.018;13.742;2023-03-01T02:39:37;100997.59;;;-2.26;73.46
75699;BME280;64313;51.018;13.742;2023-03-01T02:42:11;100990.59;;;-2.26;73.18
75699;BME280;64313;51.018;13.742;2023-03-01T02:44:37;100993.88;;;-2.22;73.05
75699;BME280;64313;51.018;13.742;2023-03-01T02:47:04;100995.56;;;-2.21;73.13
75699;BME280;64313;51.018;13.742;2023-03-01T02:49:32;100991.44;;;-2.25;74.18
75699;BME280;64313;51.018;13.742;2023-03-01T02:57:24;100981.13;;;-2.28;73.32
75699;BME280;64313;51.018;13.742;2023-03-01T02:59:54;100981.31;;;-2.31;72.48
75699;BME280;64313;51.018;13.742;2023-03-01T03:02:26;100985.78;;;-2.33;72.91
75699;BME280;64313;51.018;13.742;2023-03-01T03:05:12;100978.94;;;-2.36;73.74
75699;BME280;64313;51.018;13.742;2023-03-01T03:07:40;100975.56;;;-2.38;72.89
75699;BME280;64313;51.018;13.742;2023-03-01T03:10:09;100975.56;;;-2.38;73.09
75699;BME280;64313;51.018;13.742;2023-03-01T03:12:37;100975.63;;;-2.40;72.91
75699;BME280;64313;51.018;13.742;2023-03-01T03:15:04;100977.50;;;-2.42;72.52
75699;BME280;64313;51.018;13.742;2023-03-01T03:17:37;100969.56;;;-2.40;71.97
75699;BME280;64313;51.018;13.742;2023-03-01T03:20:04;100982.75;;;-2.42;71.94
75699;BME280;64313;51.018;13.742;2023-03-01T03:22:31;100973.13;;;-2.41;71.96
75699;BME280;64313;51.018;13.742;2023-03-01T03:24:59;100972.53;;;-2.46;71.82
75699;BME280;64313;51.018;13.742;2023-03-01T03:27:24;100971.75;;;-2.48;72.31
75699;BME280;64313;51.018;13.742;2023-03-01T03:29:49;100971.16;;;-2.53;74.15
75699;BME280;64313;51.018;13.742;2023-03-01T03:32:15;100965.94;;;-2.53;73.04
75699;BME280;64313;51.018;13.742;2023-03-01T03:34:40;100967.59;;;-2.52;72.45
75699;BME280;64313;51.018;13.742;2023-03-01T03:37:05;100964.25;;;-2.54;71.90
75699;BME280;64313;51.018;13.742;2023-03-01T03:39:51;100974.78;;;-2.56;71.75
75699;BME280;64313;51.018;13.742;2023-03-01T03:42:20;100960.88;;;-2.56;72.00
75699;BME280;64313;51.018;13.742;2023-03-01T03:44:45;100961.06;;;-2.59;71.76
75699;BME280;64313;51.018;13.742;2023-03-01T03:47:11;100967.38;;;-2.64;72.34
75699;BME280;64313;51.018;13.742;2023-03-01T03:49:36;100956.19;;;-2.67;72.19
75699;BME280;64313;51.018;13.742;2023-03-01T03:52:01;100961.53;;;-2.69;72.08
75699;BME280;64313;51.018;13.742;2023-03-01T03:54:26;100965.16;;;-2.71;71.88
75699;BME280;64313;51.018;13.742;2023-03-01T03:56:52;100964.56;;;-2.76;72.42
75699;BME280;64313;51.018;13.742;2023-03-01T03:59:17;100966.34;;;-2.77;72.77
75699;BME280;64313;51.018;13.742;2023-03-01T04:01:42;100965.41;;;-2.76;72.85
75699;BME280;64313;51.018;13.742;2023-03-01T04:04:09;100966.25;;;-2.75;73.70
75699;BME280;64313;51.018;13.742;2023-03-01T04:06:35;100965.41;;;-2.76;72.67
75699;BME280;64313;51.018;13.742;2023-03-01T04:09:00;100981.03;;;-2.74;72.43
75699;BME280;64313;51.018;13.742;2023-03-01T04:11:27;100979.50;;;-2.78;73.02
75699;BME280;64313;51.018;13.742;2023-03-01T04:13:55;100975.94;;;-2.77;72.92
75699;BME280;64313;51.018;13.742;2023-03-01T04:16:21;100971.66;;;-2.78;73.37
75699;BME280;64313;51.018;13.742;2023-03-01T04:18:47;100980.50;;;-2.81;73.87
75699;BME280;64313;51.018;13.742;2023-03-01T04:21:13;100971.06;;;-2.84;73.63
75699;BME280;64313;51.018;13.742;2023-03-01T04:23:39;100971.06;;;-2.84;73.19
75699;BME280;64313;51.018;13.742;2023-03-01T04:26:06;100961.44;;;-2.83;72.62
75699;BME280;64313;51.018;13.742;2023-03-01T04:28:49;100964.16;;;-2.85;72.69
75699;BME280;64313;51.018;13.742;2023-03-01T04:31:16;100961.06;;;-2.93;72.29
75699;BME280;64313;51.018;13.742;2023-03-01T04:33:47;100962.19;;;-2.97;73.44
75699;BME280;64313;51.018;13.742;2023-03-01T04:36:14;100961.31;;;-2.97;72.03
75699;BME280;64313;51.018;13.742;2023-03-01T04:38:41;100962.19;;;-2.97;72.23
75699;BME280;64313;51.018;13.742;2023-03-01T04:41:09;100963.09;;;-2.98;72.29
75699;BME280;64313;51.018;13.742;2023-03-01T04:43:35;100969.34;;;-3.00;72.42
75699;BME280;64313;51.018;13.742;2023-03-01T04:46:08;100964.09;;;-3.00;72.32
75699;BME280;64313;51.018;13.742;2023-03-01T04:48:38;100967.72;;;-3.03;72.15
75699;BME280;64313;51.018;13.742;2023-03-01T04:51:04;100966.66;;;-2.99;72.45
75699;BME280;64313;51.018;13.742;2023-03-01T04:53:31;100964.81;;;-2.97;72.09
75699;BME280;64313;51.018;13.742;2023-03-01T04:55:58;100964.94;;;-3.00;71.91
75699;BME280;64313;51.018;13.742;2023-03-01T04:58:24;100961.72;;;-3.05;71.54
75699;BME280;64313;51.018;13.742;2023-03-01T05:00:49;100965.44;;;-3.09;71.73
75699;BME280;64313;51.018;13.742;2023-03-01T05:03:15;100963.75;;;-3.10;71.81
75699;BME280;64313;51.018;13.742;2023-03-01T05:05:44;100965.63;;;-3.12;73.04
75699;BME280;64313;51.018;13.742;2023-03-01T05:08:09;100968.47;;;-3.17;73.41
75699;BME280;64313;51.018;13.742;2023-03-01T05:10:52;100969.53;;;-3.21;72.65
75699;BME280;64313;51.018;13.742;2023-03-01T05:13:18;100974.00;;;-3.23;72.79
75699;BME280;64313;51.018;13.742;2023-03-01T05:15:59;100963.72;;;-3.26;72.70
75699;BME280;64313;51.018;13.742;2023-03-01T05:18:25;100967.16;;;-3.26;72.71
75699;BME280;64313;51.018;13.742;2023-03-01T05:20:52;100950.47;;;-3.23;73.55
75699;BME280;64313;51.018;13.742;2023-03-01T05:23:21;100953.25;;;-3.26;72.40
75699;BME280;64313;51.018;13.742;2023-03-01T05:25:47;100949.97;;;-3.30;72.79
75699;BME280;64313;51.018;13.742;2023-03-01T05:28:12;100951.81;;;-3.32;72.21
75699;BME280;64313;51.018;13.742;2023-03-01T05:30:38;100950.97;;;-3.32;72.24
75699;BME280;64313;51.018;13.742;2023-03-01T05:33:04;100959.66;;;-3.32;73.17
75699;BME280;64313;51.018;13.742;2023-03-01T05:35:32;100956.94;;;-3.30;72.92
75699;BME280;64313;51.018;13.742;2023-03-01T05:37:57;100957.19;;;-3.35;73.92
75699;BME280;64313;51.018;13.742;2023-03-01T05:40:23;100942.53;;;-3.37;72.82
75699;BME280;64313;51.018;13.742;2023-03-01T05:42:53;100940.91;;;-3.40;72.35
75699;BME280;64313;51.018;13.742;2023-03-01T05:45:20;100947.03;;;-3.41;72.65
75699;BME280;64313;51.018;13.742;2023-03-01T05:47:47;100947.97;;;-3.42;72.87
75699;BME280;64313;51.018;13.742;2023-03-01T05:52:39;100947.97;;;-3.42;73.44
75699;BME280;64313;51.018;13.742;2023-03-01T05:55:05;100942.91;;;-3.45;73.35
75699;BME280;64313;51.018;13.742;2023-03-01T05:57:31;100953.44;;;-3.46;72.62
75699;BME280;64313;51.018;13.742;2023-03-01T05:59:56;100957.81;;;-3.47;73.55
75699;BME280;64313;51.018;13.742;2023-03-01T06:02:22;100955.97;;;-3.45;72.60
75699;BME280;64313;51.018;13.742;2023-03-01T06:04:47;100950.81;;;-3.46;72.58
75699;BME280;64313;51.018;13.742;2023-03-01T06:07:12;100957.00;;;-3.47;73.34
75699;BME280;64313;51.018;13.742;2023-03-01T06:09:38;100964.72;;;-3.46;73.58
75699;BME280;64313;51.018;13.742;2023-03-01T06:12:03;100955.88;;;-3.43;73.29
75699;BME280;64313;51.018;13.742;2023-03-01T06:14:28;100966.34;;;-3.43;73.17
75699;BME280;64313;51.018;13.742;2023-03-01T06:16:54;100962.81;;;-3.42;73.09
75699;BME280;64313;51.018;13.742;2023-03-01T06:19:19;100953.22;;;-3.42;73.81
75699;BME280;64313;51.018;13.742;2023-03-01T06:21:44;100960.44;;;-3.47;73.52
75699;BME280;64313;51.018;13.742;2023-03-01T06:24:10;100956.72;;;-3.43;73.01
75699;BME280;64313;51.018;13.742;2023-03-01T06:26:35;100967.94;;;-3.41;72.87
75699;BME280;64313;51.018;13.742;2023-03-01T06:29:00;100972.19;;;-3.38;73.76
75699;BME280;64313;51.018;13.742;2023-03-01T06:31:26;100969.41;;;-3.35;72.94
75699;BME280;64313;51.018;13.742;2023-03-01T06:33:51;100974.50;;;-3.32;73.74
75699;BME280;64313;51.018;13.742;2023-03-01T06:36:16;100971.00;;;-3.33;74.17
75699;BME280;64313;51.018;13.742;2023-03-01T06:38:44;100970.94;;;-3.31;74.01
75699;BME280;64313;51.018;13.742;2023-03-01T06:41:09;100981.22;;;-3.28;73.66
75699;BME280;64313;51.018;13.742;2023-03-01T06:43:34;100977.63;;;-3.26;73.58
75699;BME280;64313;51.018;13.742;2023-03-01T06:46:00;100978.31;;;-3.22;73.89
75699;BME280;64313;51.018;13.742;2023-03-01T06:48:28;100979.94;;;-3.19;73.69
75699;BME280;64313;51.018;13.742;2023-03-01T06:50:53;100978.81;;;-3.15;73.67
75699;BME280;64313;51.018;13.742;2023-03-01T06:53:18;100980.44;;;-3.13;73.11
75699;BME280;64313;51.018;13.742;2023-03-01T06:55:44;100981.13;;;-3.09;73.65
75699;BME280;64313;51.018;13.742;2023-03-01T06:58:09;100975.06;;;-3.10;73.95
75699;BME280;64313;51.018;13.742;2023-03-01T07:00:35;100975.75;;;-3.06;73.14
75699;BME280;64313;51.018;13.742;2023-03-01T07:03:01;100979.78;;;-3.00;73.36
75699;BME280;64313;51.018;13.742;2023-03-01T07:05:28;100977.09;;;-2.99;73.49
75699;BME280;64313;51.018;13.742;2023-03-01T07:07:53;100973.31;;;-2.93;73.90
75699;BME280;64313;51.018;13.742;2023-03-01T07:10:20;100970.47;;;-2.89;72.89
75699;BME280;64313;51.018;13.742;2023-03-01T07:12:45;100971.91;;;-2.83;73.39
75699;BME280;64313;51.018;13.742;2023-03-01T07:15:11;100970.72;;;-2.77;73.10
75699;BME280;64313;51.018;13.742;2023-03-01T07:17:37;100965.25;;;-2.73;72.99
75699;BME280;64313;51.018;13.742;2023-03-01T07:20:03;100965.06;;;-2.70;74.11
75699;BME280;64313;51.018;13.742;2023-03-01T07:22:28;100964.06;;;-2.67;73.06
75699;BME280;64313;51.018;13.742;2023-03-01T07:24:53;100961.19;;;-2.63;73.29
75699;BME280;64313;51.018;13.742;2023-03-01T07:27:19;100953.19;;;-2.59;73.25
75699;BME280;64313;51.018;13.742;2023-03-01T07:29:44;100951.91;;;-2.52;73.55
75699;BME280;64313;51.018;13.742;2023-03-01T07:32:13;100956.06;;;-2.48;73.71
75699;BME280;64313;51.018;13.742;2023-03-01T07:34:38;100955.09;;;-2.47;73.55
75699;BME280;64313;51.018;13.742;2023-03-01T07:37:04;100961.81;;;-2.42;73.52
75699;BME280;64313;51.018;13.742;2023-03-01T07:39:29;100956.13;;;-2.34;73.64
75699;BME280;64313;51.018;13.742;2023-03-01T07:41:56;100954.88;;;-2.27;73.86
75699;BME280;64313;51.018;13.742;2023-03-01T07:44:22;100953.56;;;-2.20;73.32
75699;BME280;64313;51.018;13.742;2023-03-01T07:46:47;100953.13;;;-2.12;73.07
75699;BME280;64313;51.018;13.742;2023-03-01T07:49:13;100944.19;;;-2.08;73.96
75699;BME280;64313;51.018;13.742;2023-03-01T07:51:38;100955.22;;;-2.03;73.17
75699;BME280;64313;51.018;13.742;2023-03-01T07:54:03;100949.75;;;-1.98;73.35
75699;BME280;64313;51.018;13.742;2023-03-01T07:56:29;100946.75;;;-1.92;72.57
75699;BME280;64313;51.018;13.742;2023-03-01T07:58:54;100950.97;;;-1.89;72.97
75699;BME280;64313;51.018;13.742;2023-03-01T08:01:21;100939.47;;;-1.87;72.99
75699;BME280;64313;51.018;13.742;2023-03-01T08:03:47;100932.28;;;-1.83;73.15
75699;BME280;64313;51.018;13.742;2023-03-01T08:06:14;100937.28;;;-1.79;72.90
75699;BME280;64313;51.018;13.742;2023-03-01T08:08:40;100934.47;;;-1.76;73.08
75699;BME280;64313;51.018;13.742;2023-03-01T08:11:07;100920.16;;;-1.70;73.40
75699;BME280;64313;51.018;13.742;2023-03-01T08:13:34;100914.56;;;-1.64;72.96
75699;BME280;64313;51.018;13.742;2023-03-01T08:16:01;100911.47;;;-1.56;72.44
75699;BME280;64313;51.018;13.742;2023-03-01T08:18:27;100919.03;;;-1.52;72.60
75699;BME280;64313;51.018;13.742;2023-03-01T08:20:52;100913.44;;;-1.45;72.32
75699;BME280;64313;51.018;13.742;2023-03-01T08:23:17;100921.75;;;-1.39;72.10
75699;BME280;64313;51.018;13.742;2023-03-01T08:25:43;100920.66;;;-1.35;72.32
75699;BME280;64313;51.018;13.742;2023-03-01T08:28:08;100919.44;;;-1.29;71.76
75699;BME280;64313;51.018;13.742;2023-03-01T08:30:34;100924.41;;;-1.24;71.97
75699;BME280;64313;51.018;13.742;2023-03-01T08:32:59;100920.56;;;-1.19;72.03
75699;BME280;64313;51.018;13.742;2023-03-01T08:35:25;100902.66;;;-1.12;71.15
75699;BME280;64313;51.018;13.742;2023-03-01T08:37:50;100915.72;;;-1.11;71.31
75699;BME280;64313;51.018;13.742;2023-03-01T08:40:15;100920.56;;;-1.04;71.56
75699;BME280;64313;51.018;13.742;2023-03-01T08:42:41;100915.13;;;-1.01;70.81
75699;BME280;64313;51.018;13.742;2023-03-01T08:45:09;100912.41;;;-1.00;70.74
75699;BME280;64313;51.018;13.742;2023-03-01T08:47:35;100906.88;;;-0.95;70.79
75699;BME280;64313;51.018;13.742;2023-03-01T08:50:02;100909.94;;;-0.89;71.04
75699;BME280;64313;51.018;13.742;2023-03-01T08:52:28;100910.31;;;-0.80;70.88
75699;BME280;64313;51.018;13.742;2023-03-01T08:54:55;100902.88;;;-0.74;70.16
75699;BME280;64313;51.018;13.742;2023-03-01T08:57:20;100901.66;;;-0.68;70.37
75699;BME280;64313;51.018;13.742;2023-03-01T08:59:47;100903.16;;;-0.64;70.11
75699;BME280;64313;51.018;13.742;2023-03-01T09:02:14;100904.66;;;-0.60;70.43
75699;BME280;64313;51.018;13.742;2023-03-01T09:04:40;100901.75;;;-0.55;70.16
75699;BME280;64313;51.018;13.742;2023-03-01T09:07:06;100906.59;;;-0.49;70.05
75699;BME280;64313;51.018;13.742;2023-03-01T09:09:32;100905.13;;;-0.40;69.38
75699;BME280;64313;51.018;13.742;2023-03-01T09:11:57;100905.59;;;-0.34;70.00
75699;BME280;64313;51.018;13.742;2023-03-01T09:14:22;100893.84;;;-0.28;69.47
75699;BME280;64313;51.018;13.742;2023-03-01T09:16:48;100895.13;;;-0.21;68.57
75699;BME280;64313;51.018;13.742;2023-03-01T09:19:13;100878.97;;;-0.15;69.14
75699;BME280;64313;51.018;13.742;2023-03-01T09:21:39;100879.38;;;-0.08;68.67
75699;BME280;64313;51.018;13.742;2023-03-01T09:24:05;100880.66;;;-0.01;69.16
75699;BME280;64313;51.018;13.742;2023-03-01T09:26:31;100882.78;;;0.07;68.88
75699;BME280;64313;51.018;13.742;2023-03-01T09:28:56;100870.06;;;0.13;68.72
75699;BME280;64313;51.018;13.742;2023-03-01T09:31:24;100864.50;;;0.18;68.16
75699;BME280;64313;51.018;13.742;2023-03-01T09:33:51;100870.38;;;0.21;68.31
75699;BME280;64313;51.018;13.742;2023-03-01T09:36:21;100864.69;;;0.28;68.29
75699;BME280;64313;51.018;13.742;2023-03-01T09:38:47;100864.31;;;0.34;68.22
75699;BME280;64313;51.018;13.742;2023-03-01T09:44:24;100871.88;;;0.51;67.06
75699;BME280;64313;51.018;13.742;2023-03-01T09:46:52;100874.81;;;0.59;67.92
75699;BME280;64313;51.018;13.742;2023-03-01T09:49:26;100871.66;;;0.67;67.36
75699;BME280;64313;51.018;13.742;2023-03-01T09:51:59;100866.59;;;0.77;67.63
75699;BME280;64313;51.018;13.742;2023-03-01T09:54:26;100870.34;;;0.85;67.06
75699;BME280;64313;51.018;13.742;2023-03-01T09:56:59;100862.88;;;0.92;67.51
75699;BME280;64313;51.018;13.742;2023-03-01T09:59:45;100863.16;;;1.00;66.89
75699;BME280;64313;51.018;13.742;2023-03-01T10:02:39;100860.84;;;1.08;66.01
75699;BME280;64313;51.018;13.742;2023-03-01T10:07:50;100863.31;;;1.23;66.33
75699;BME280;64313;51.018;13.742;2023-03-01T10:10:35;100856.53;;;1.32;65.52
75699;BME280;64313;51.018;13.742;2023-03-01T10:13:10;100866.41;;;1.41;65.98
75699;BME280;64313;51.018;13.742;2023-03-01T10:15:44;100859.63;;;1.49;65.00
75699;BME280;64313;51.018;13.742;2023-03-01T10:18:16;100865.28;;;1.56;65.73
75699;BME280;64313;51.018;13.742;2023-03-01T10:20:56;100862.31;;;1.61;66.02
75699;BME280;64313;51.018;13.742;2023-03-01T10:23:24;100867.13;;;1.67;66.24
75699;BME280;64313;51.018;13.742;2023-03-01T10:26:05;100865.72;;;1.74;66.03
75699;BME280;64313;51.018;13.742;2023-03-01T10:29:06;100859.88;;;1.82;65.62
75699;BME280;64313;51.018;13.742;2023-03-01T10:34:19;100857.91;;;1.97;64.78
75699;BME280;64313;51.018;13.742;2023-03-01T10:36:48;100852.50;;;1.98;64.04
75699;BME280;64313;51.018;13.742;2023-03-01T10:39:19;100847.72;;;2.03;63.87
75699;BME280;64313;51.018;13.742;2023-03-01T10:44:45;100841.41;;;2.17;63.98
75699;BME280;64313;51.018;13.742;2023-03-01T10:47:17;100839.84;;;2.26;64.42
75699;BME280;64313;51.018;13.742;2023-03-01T10:49:57;100837.47;;;2.34;64.83
75699;BME280;64313;51.018;13.742;2023-03-01T10:52:25;100837.84;;;2.41;64.50
75699;BME280;64313;51.018;13.742;2023-03-01T10:54:53;100831.38;;;2.45;63.92
75699;BME280;64313;51.018;13.742;2023-03-01T10:57:37;100829.91;;;2.52;63.76
75699;BME280;64313;51.018;13.742;2023-03-01T11:00:19;100819.00;;;2.56;63.32
75699;BME280;64313;51.018;13.742;2023-03-01T11:02:48;100820.19;;;2.64;62.34
75699;BME280;64313;51.018;13.742;2023-03-01T11:05:23;100818.75;;;2.71;63.11
75699;BME280;64313;51.018;13.742;2023-03-01T11:07:57;100814.69;;;2.78;63.93
75699;BME280;64313;51.018;13.742;2023-03-01T11:10:26;100805.44;;;2.84;61.30
75699;BME280;64313;51.018;13.742;2023-03-01T11:12:52;100808.53;;;2.89;61.47
75699;BME280;64313;51.018;13.742;2023-03-01T11:15:21;100801.81;;;2.96;62.26
75699;BME280;64313;51.018;13.742;2023-03-01T11:17:47;100791.47;;;3.04;60.91
75699;BME280;64313;51.018;13.742;2023-03-01T11:22:47;100783.13;;;3.20;62.32
75699;BME280;64313;51.018;13.742;2023-03-01T11:25:17;100785.00;;;3.29;62.33
75699;BME280;64313;51.018;13.742;2023-03-01T11:27:45;100793.03;;;3.39;62.06
75699;BME280;64313;51.018;13.742;2023-03-01T11:30:21;100790.47;;;3.49;61.03
75699;BME280;64313;51.018;13.742;2023-03-01T11:35:36;100791.72;;;3.65;60.08
75699;BME280;64313;51.018;13.742;2023-03-01T11:38:22;100785.66;;;3.75;60.67
75699;BME280;64313;51.018;13.742;2023-03-01T11:40:49;100790.28;;;3.82;60.18
75699;BME280;64313;51.018;13.742;2023-03-01T11:43:28;100786.06;;;3.91;59.70
75699;BME280;64313;51.018;13.742;2023-03-01T11:51:41;100791.31;;;4.12;57.75
75699;BME280;64313;51.018;13.742;2023-03-01T11:56:57;100784.38;;;4.21;55.22
75699;BME280;64313;51.018;13.742;2023-03-01T12:02:44;100770.69;;;4.37;56.26
75699;BME280;64313;51.018;13.742;2023-03-01T12:05:42;100768.22;;;4.45;56.23
75699;BME280;64313;51.018;13.742;2023-03-01T12:11:10;100763.66;;;4.57;55.18
75699;BME280;64313;51.018;13.742;2023-03-01T12:13:59;100752.66;;;4.61;55.63
75699;BME280;64313;51.018;13.742;2023-03-01T12:17:04;100753.53;;;4.71;55.37
75699;BME280;64313;51.018;13.742;2023-03-01T12:25:02;100745.47;;;4.92;54.36
75699;BME280;64313;51.018;13.742;2023-03-01T12:30:34;100744.38;;;5.05;53.92
75699;BME280;64313;51.018;13.742;2023-03-01T12:38:49;100731.41;;;5.21;54.45
75699;BME280;64313;51.018;13.742;2023-03-01T12:44:12;100721.38;;;5.25;53.27
75699;BME280;64313;51.018;13.742;2023-03-01T12:46:59;100720.38;;;5.26;52.11
75699;BME280;64313;51.018;13.742;2023-03-01T12:49:39;100729.16;;;5.26;52.35
75699;BME280;64313;51.018;13.742;2023-03-01T12:52:14;100731.28;;;5.23;51.90
75699;BME280;64313;51.018;13.742;2023-03-01T12:54:42;100736.59;;;5.23;52.69
75699;BME280;64313;51.018;13.742;2023-03-01T12:57:20;100725.00;;;5.24;52.65
75699;BME280;64313;51.018;13.742;2023-03-01T13:00:06;100727.63;;;5.24;52.54
75699;BME280;64313;51.018;13.742;2023-03-01T13:02:44;100714.25;;;5.25;51.99
75699;BME280;64313;51.018;13.742;2023-03-01T13:05:35;100710.38;;;5.29;53.59
75699;BME280;64313;51.018;13.742;2023-03-01T13:08:15;100708.97;;;5.25;52.06
75699;BME280;64313;51.018;13.742;2023-03-01T13:10:49;100706.19;;;5.27;53.21
75699;BME280;64313;51.018;13.742;2023-03-01T13:13:23;100715.91;;;5.26;51.98
75699;BME280;64313;51.018;13.742;2023-03-01T13:15:49;100708.13;;;5.25;53.29
75699;BME280;64313;51.018;13.742;2023-03-01T13:26:16;100705.31;;;5.16;53.62
75699;BME280;64313;51.018;13.742;2023-03-01T13:33:58;100706.19;;;5.27;53.26
75699;BME280;64313;51.018;13.742;2023-03-01T13:46:50;100686.63;;;5.47;52.12
75699;BME280;64313;51.018;13.742;2023-03-01T13:49:20;100694.13;;;5.52;52.16
75699;BME280;64313;51.018;13.742;2023-03-01T13:51:47;100701.13;;;5.53;52.34
75699;BME280;64313;51.018;13.742;2023-03-01T13:54:16;100692.88;;;5.56;51.35
75699;BME280;64313;51.018;13.742;2023-03-01T13:56:45;100692.75;;;5.57;50.54
75699;BME280;64313;51.018;13.742;2023-03-01T13:59:20;100694.97;;;5.62;51.04
75699;BME280;64313;51.018;13.742;2023-03-01T14:01:55;100692.97;;;5.64;51.23
75699;BME280;64313;51.018;13.742;2023-03-01T14:04:26;100684.91;;;5.66;50.89
75699;BME280;64313;51.018;13.742;2023-03-01T14:07:27;100683.06;;;5.66;50.64
75699;BME280;64313;51.018;13.742;2023-03-01T14:10:02;100678.47;;;5.68;51.32
75699;BME280;64313;51.018;13.742;2023-03-01T14:12:53;100678.16;;;5.71;51.53
75699;BME280;64313;51.018;13.742;2023-03-01T14:15:34;100676.22;;;5.73;51.73
75699;BME280;64313;51.018;13.742;2023-03-01T14:18:08;100674.69;;;5.71;51.46